sensor_id;sensor_type;location;lat;lon;timestamp;temperature;humidity
13817;DHT22;6979;52.116;5.286;2022-08-14T00:00:53;26.90;69.40
13817;DHT22;6979;52.116;5.286;2022-08-14T00:03:25;26.90;69.40
13817;DHT22;6979;52.116;5.286;2022-08-14T00:05:53;26.90;69.70
13817;DHT22;6979;52.116;5.286;2022-08-14T00:08:21;26.90;69.80
13817;DHT22;6979;52.116;5.286;2022-08-14T00:10:48;26.90;70.00
13817;DHT22;6979;52.116;5.286;2022-08-14T00:13:18;26.80;70.00
13817;DHT22;6979;52.116;5.286;2022-08-14T00:15:48;26.80;70.20
13817;DHT22;6979;52.116;5.286;2022-08-14T00:18:19;26.80;70.10
13817;DHT22;6979;52.116;5.286;2022-08-14T00:20:46;26.80;70.40
13817;DHT22;6979;52.116;5.286;2022-08-14T00:23:15;26.80;70.30
13817;DHT22;6979;52.116;5.286;2022-08-14T00:25:46;26.80;70.50
13817;DHT22;6979;52.116;5.286;2022-08-14T00:28:14;26.80;70.70
13817;DHT22;6979;52.116;5.286;2022-08-14T00:30:41;26.70;70.60
13817;DHT22;6979;52.116;5.286;2022-08-14T00:33:08;26.70;70.60
13817;DHT22;6979;52.116;5.286;2022-08-14T00:35:35;26.70;70.80
13817;DHT22;6979;52.116;5.286;2022-08-14T00:38:02;26.70;70.90
13817;DHT22;6979;52.116;5.286;2022-08-14T00:40:29;26.70;70.90
13817;DHT22;6979;52.116;5.286;2022-08-14T00:42:57;26.70;71.10
13817;DHT22;6979;52.116;5.286;2022-08-14T00:45:24;26.70;71.40
13817;DHT22;6979;52.116;5.286;2022-08-14T00:47:51;26.60;71.40
13817;DHT22;6979;52.116;5.286;2022-08-14T00:50:20;26.60;71.60
13817;DHT22;6979;52.116;5.286;2022-08-14T00:52:49;26.60;71.90
13817;DHT22;6979;52.116;5.286;2022-08-14T00:55:17;26.60;72.00
13817;DHT22;6979;52.116;5.286;2022-08-14T00:57:45;26.60;71.90
13817;DHT22;6979;52.116;5.286;2022-08-14T01:00:34;26.50;72.10
13817;DHT22;6979;52.116;5.286;2022-08-14T01:03:02;26.50;72.20
13817;DHT22;6979;52.116;5.286;2022-08-14T01:05:29;26.50;72.20
13817;DHT22;6979;52.116;5.286;2022-08-14T01:07:55;26.50;72.40
13817;DHT22;6979;52.116;5.286;2022-08-14T01:10:24;26.50;72.70
13817;DHT22;6979;52.116;5.286;2022-08-14T01:13:12;26.40;72.80
13817;DHT22;6979;52.116;5.286;2022-08-14T01:15:43;26.40;73.10
13817;DHT22;6979;52.116;5.286;2022-08-14T01:18:10;26.40;73.10
13817;DHT22;6979;52.116;5.286;2022-08-14T01:20:56;26.40;73.20
13817;DHT22;6979;52.116;5.286;2022-08-14T01:23:31;26.40;73.40
13817;DHT22;6979;52.116;5.286;2022-08-14T01:25:58;26.30;73.50
13817;DHT22;6979;52.116;5.286;2022-08-14T01:28:24;26.30;73.70
13817;DHT22;6979;52.116;5.286;2022-08-14T01:30:52;26.30;73.90
13817;DHT22;6979;52.116;5.286;2022-08-14T01:33:21;26.30;74.00
13817;DHT22;6979;52.116;5.286;2022-08-14T01:35:50;26.30;74.20
13817;DHT22;6979;52.116;5.286;2022-08-14T01:38:19;26.20;74.20
13817;DHT22;6979;52.116;5.286;2022-08-14T01:40:47;26.20;74.40
13817;DHT22;6979;52.116;5.286;2022-08-14T01:43:14;26.20;74.60
13817;DHT22;6979;52.116;5.286;2022-08-14T01:45:42;26.20;74.60
13817;DHT22;6979;52.116;5.286;2022-08-14T01:48:09;26.10;74.50
13817;DHT22;6979;52.116;5.286;2022-08-14T01:50:36;26.10;74.70
13817;DHT22;6979;52.116;5.286;2022-08-14T01:53:03;26.10;74.80
13817;DHT22;6979;52.116;5.286;2022-08-14T01:55:30;26.10;75.00
13817;DHT22;6979;52.116;5.286;2022-08-14T01:57:59;26.10;75.80
13817;DHT22;6979;52.116;5.286;2022-08-14T02:00:26;26.10;75.30
13817;DHT22;6979;52.116;5.286;2022-08-14T02:02:54;26.10;75.30
13817;DHT22;6979;52.116;5.286;2022-08-14T02:05:24;26.10;75.50
13817;DHT22;6979;52.116;5.286;2022-08-14T02:07:54;26.00;75.60
13817;DHT22;6979;52.116;5.286;2022-08-14T02:10:21;26.00;75.40
13817;DHT22;6979;52.116;5.286;2022-08-14T02:12:48;26.00;75.70
13817;DHT22;6979;52.116;5.286;2022-08-14T02:15:16;26.00;75.60
13817;DHT22;6979;52.116;5.286;2022-08-14T02:17:46;25.90;75.80
13817;DHT22;6979;52.116;5.286;2022-08-14T02:20:13;25.90;75.80
13817;DHT22;6979;52.116;5.286;2022-08-14T02:22:42;25.90;75.90
13817;DHT22;6979;52.116;5.286;2022-08-14T02:25:10;25.90;75.90
13817;DHT22;6979;52.116;5.286;2022-08-14T02:27:36;25.90;76.00
13817;DHT22;6979;52.116;5.286;2022-08-14T02:30:07;25.80;76.00
13817;DHT22;6979;52.116;5.286;2022-08-14T02:32:35;25.80;76.30
13817;DHT22;6979;52.116;5.286;2022-08-14T02:35:04;25.80;76.40
13817;DHT22;6979;52.116;5.286;2022-08-14T02:37:35;25.70;76.40
13817;DHT22;6979;52.116;5.286;2022-08-14T02:40:06;25.70;76.50
13817;DHT22;6979;52.116;5.286;2022-08-14T02:42:33;25.70;76.70
13817;DHT22;6979;52.116;5.286;2022-08-14T02:45:00;25.70;76.90
13817;DHT22;6979;52.116;5.286;2022-08-14T02:47:27;25.60;76.90
13817;DHT22;6979;52.116;5.286;2022-08-14T02:49:56;25.60;77.10
13817;DHT22;6979;52.116;5.286;2022-08-14T02:52:23;25.50;77.10
13817;DHT22;6979;52.116;5.286;2022-08-14T02:54:50;25.50;77.30
13817;DHT22;6979;52.116;5.286;2022-08-14T02:57:17;25.50;77.40
13817;DHT22;6979;52.116;5.286;2022-08-14T02:59:48;25.50;77.50
13817;DHT22;6979;52.116;5.286;2022-08-14T03:02:15;25.40;77.60
13817;DHT22;6979;52.116;5.286;2022-08-14T03:04:43;25.40;77.70
13817;DHT22;6979;52.116;5.286;2022-08-14T03:07:13;25.40;77.60
13817;DHT22;6979;52.116;5.286;2022-08-14T03:09:41;25.30;77.80
13817;DHT22;6979;52.116;5.286;2022-08-14T03:12:08;25.30;77.70
13817;DHT22;6979;52.116;5.286;2022-08-14T03:14:35;25.30;77.80
13817;DHT22;6979;52.116;5.286;2022-08-14T03:17:04;25.30;78.00
13817;DHT22;6979;52.116;5.286;2022-08-14T03:19:39;25.20;77.80
13817;DHT22;6979;52.116;5.286;2022-08-14T03:22:06;25.20;78.10
13817;DHT22;6979;52.116;5.286;2022-08-14T03:24:34;25.20;78.00
13817;DHT22;6979;52.116;5.286;2022-08-14T03:27:02;25.10;78.10
13817;DHT22;6979;52.116;5.286;2022-08-14T03:29:31;25.10;78.30
13817;DHT22;6979;52.116;5.286;2022-08-14T03:31:58;25.10;78.20
13817;DHT22;6979;52.116;5.286;2022-08-14T03:34:25;25.00;78.40
13817;DHT22;6979;52.116;5.286;2022-08-14T03:36:52;25.00;78.60
13817;DHT22;6979;52.116;5.286;2022-08-14T03:39:22;25.00;78.70
13817;DHT22;6979;52.116;5.286;2022-08-14T03:41:51;24.90;79.00
13817;DHT22;6979;52.116;5.286;2022-08-14T03:44:19;24.90;79.00
13817;DHT22;6979;52.116;5.286;2022-08-14T03:46:46;24.90;79.00
13817;DHT22;6979;52.116;5.286;2022-08-14T03:49:12;24.80;79.00
13817;DHT22;6979;52.116;5.286;2022-08-14T03:51:40;24.80;79.00
13817;DHT22;6979;52.116;5.286;2022-08-14T03:54:08;24.80;79.40
13817;DHT22;6979;52.116;5.286;2022-08-14T03:56:37;24.70;79.30
13817;DHT22;6979;52.116;5.286;2022-08-14T03:59:10;24.70;79.30
13817;DHT22;6979;52.116;5.286;2022-08-14T04:01:39;24.70;79.60
13817;DHT22;6979;52.116;5.286;2022-08-14T04:04:06;24.60;79.80
13817;DHT22;6979;52.116;5.286;2022-08-14T04:06:35;24.60;80.00
13817;DHT22;6979;52.116;5.286;2022-08-14T04:09:03;24.60;80.30
13817;DHT22;6979;52.116;5.286;2022-08-14T04:11:33;24.60;80.10
13817;DHT22;6979;52.116;5.286;2022-08-14T04:14:00;24.50;80.40
13817;DHT22;6979;52.116;5.286;2022-08-14T04:16:29;24.50;80.40
13817;DHT22;6979;52.116;5.286;2022-08-14T04:18:56;24.50;80.70
13817;DHT22;6979;52.116;5.286;2022-08-14T04:21:25;24.40;80.70
13817;DHT22;6979;52.116;5.286;2022-08-14T04:23:56;24.40;80.80
13817;DHT22;6979;52.116;5.286;2022-08-14T04:26:25;24.40;80.90
13817;DHT22;6979;52.116;5.286;2022-08-14T04:28:52;24.30;80.70
13817;DHT22;6979;52.116;5.286;2022-08-14T04:31:20;24.30;81.00
13817;DHT22;6979;52.116;5.286;2022-08-14T04:33:49;24.30;81.10
13817;DHT22;6979;52.116;5.286;2022-08-14T04:36:17;24.30;81.40
13817;DHT22;6979;52.116;5.286;2022-08-14T04:38:44;24.20;81.40
13817;DHT22;6979;52.116;5.286;2022-08-14T04:41:28;24.20;81.50
13817;DHT22;6979;52.116;5.286;2022-08-14T04:44:12;24.20;81.50
13817;DHT22;6979;52.116;5.286;2022-08-14T04:46:39;24.20;81.50
13817;DHT22;6979;52.116;5.286;2022-08-14T04:49:27;24.20;82.00
13817;DHT22;6979;52.116;5.286;2022-08-14T04:51:53;24.10;82.00
13817;DHT22;6979;52.116;5.286;2022-08-14T04:54:20;24.10;82.10
13817;DHT22;6979;52.116;5.286;2022-08-14T04:56:47;24.10;82.30
13817;DHT22;6979;52.116;5.286;2022-08-14T04:59:13;24.10;82.60
13817;DHT22;6979;52.116;5.286;2022-08-14T05:01:41;24.10;82.80
13817;DHT22;6979;52.116;5.286;2022-08-14T05:04:09;24.00;83.00
13817;DHT22;6979;52.116;5.286;2022-08-14T05:06:38;24.00;83.10
13817;DHT22;6979;52.116;5.286;2022-08-14T05:09:05;24.00;83.20
13817;DHT22;6979;52.116;5.286;2022-08-14T05:11:32;24.00;83.30
13817;DHT22;6979;52.116;5.286;2022-08-14T05:14:03;23.90;83.40
13817;DHT22;6979;52.116;5.286;2022-08-14T05:16:29;23.90;83.40
13817;DHT22;6979;52.116;5.286;2022-08-14T05:18:57;23.90;83.50
13817;DHT22;6979;52.116;5.286;2022-08-14T05:21:23;24.00;83.70
13817;DHT22;6979;52.116;5.286;2022-08-14T05:23:54;24.00;83.90
13817;DHT22;6979;52.116;5.286;2022-08-14T05:26:22;24.00;84.00
13817;DHT22;6979;52.116;5.286;2022-08-14T05:28:48;24.00;84.00
13817;DHT22;6979;52.116;5.286;2022-08-14T05:31:17;24.00;84.20
13817;DHT22;6979;52.116;5.286;2022-08-14T05:33:44;24.00;84.30
13817;DHT22;6979;52.116;5.286;2022-08-14T05:36:12;24.00;84.30
13817;DHT22;6979;52.116;5.286;2022-08-14T05:38:41;24.00;84.50
13817;DHT22;6979;52.116;5.286;2022-08-14T05:41:13;24.10;84.60
13817;DHT22;6979;52.116;5.286;2022-08-14T05:43:41;24.10;84.80
13817;DHT22;6979;52.116;5.286;2022-08-14T05:46:10;24.10;84.60
13817;DHT22;6979;52.116;5.286;2022-08-14T05:48:37;24.10;84.70
13817;DHT22;6979;52.116;5.286;2022-08-14T05:51:04;24.10;84.70
13817;DHT22;6979;52.116;5.286;2022-08-14T05:53:31;24.20;84.80
13817;DHT22;6979;52.116;5.286;2022-08-14T05:55:58;24.20;85.70
13817;DHT22;6979;52.116;5.286;2022-08-14T05:58:27;24.20;84.80
13817;DHT22;6979;52.116;5.286;2022-08-14T06:00:54;24.30;85.00
13817;DHT22;6979;52.116;5.286;2022-08-14T06:03:22;24.30;84.80
13817;DHT22;6979;52.116;5.286;2022-08-14T06:05:50;24.30;84.80
13817;DHT22;6979;52.116;5.286;2022-08-14T06:08:19;24.40;84.90
13817;DHT22;6979;52.116;5.286;2022-08-14T06:10:47;24.40;85.00
13817;DHT22;6979;52.116;5.286;2022-08-14T06:13:14;24.50;84.90
13817;DHT22;6979;52.116;5.286;2022-08-14T06:15:42;24.50;84.90
13817;DHT22;6979;52.116;5.286;2022-08-14T06:18:09;24.50;84.90
13817;DHT22;6979;52.116;5.286;2022-08-14T06:20:37;24.60;84.90
13817;DHT22;6979;52.116;5.286;2022-08-14T06:23:05;24.60;85.00
13817;DHT22;6979;52.116;5.286;2022-08-14T06:25:37;24.70;85.10
13817;DHT22;6979;52.116;5.286;2022-08-14T06:28:04;24.70;85.00
13817;DHT22;6979;52.116;5.286;2022-08-14T06:30:33;24.80;85.00
13817;DHT22;6979;52.116;5.286;2022-08-14T06:33:01;24.80;85.10
13817;DHT22;6979;52.116;5.286;2022-08-14T06:35:28;24.90;85.10
13817;DHT22;6979;52.116;5.286;2022-08-14T06:37:56;24.90;84.80
13817;DHT22;6979;52.116;5.286;2022-08-14T06:40:25;25.00;84.80
13817;DHT22;6979;52.116;5.286;2022-08-14T06:42:52;25.10;84.90
13817;DHT22;6979;52.116;5.286;2022-08-14T06:45:19;25.10;84.80
13817;DHT22;6979;52.116;5.286;2022-08-14T06:47:46;25.20;84.90
13817;DHT22;6979;52.116;5.286;2022-08-14T06:50:16;25.20;84.70
13817;DHT22;6979;52.116;5.286;2022-08-14T06:52:46;25.30;84.70
13817;DHT22;6979;52.116;5.286;2022-08-14T06:55:15;25.40;84.60
13817;DHT22;6979;52.116;5.286;2022-08-14T06:57:44;25.50;84.60
13817;DHT22;6979;52.116;5.286;2022-08-14T07:00:14;25.50;84.50
13817;DHT22;6979;52.116;5.286;2022-08-14T07:02:44;25.60;84.40
13817;DHT22;6979;52.116;5.286;2022-08-14T07:05:31;25.70;84.30
13817;DHT22;6979;52.116;5.286;2022-08-14T07:08:12;25.80;85.10
13817;DHT22;6979;52.116;5.286;2022-08-14T07:10:40;25.90;84.10
13817;DHT22;6979;52.116;5.286;2022-08-14T07:13:09;25.90;84.00
13817;DHT22;6979;52.116;5.286;2022-08-14T07:15:36;26.00;83.90
13817;DHT22;6979;52.116;5.286;2022-08-14T07:18:05;26.10;83.80
13817;DHT22;6979;52.116;5.286;2022-08-14T07:20:33;26.20;83.80
13817;DHT22;6979;52.116;5.286;2022-08-14T07:23:01;26.30;83.90
13817;DHT22;6979;52.116;5.286;2022-08-14T07:25:28;26.30;83.60
13817;DHT22;6979;52.116;5.286;2022-08-14T07:27:55;26.40;83.50
13817;DHT22;6979;52.116;5.286;2022-08-14T07:30:23;26.50;83.60
13817;DHT22;6979;52.116;5.286;2022-08-14T07:32:50;26.60;83.50
13817;DHT22;6979;52.116;5.286;2022-08-14T07:35:16;26.70;83.30
13817;DHT22;6979;52.116;5.286;2022-08-14T07:37:47;26.70;83.20
13817;DHT22;6979;52.116;5.286;2022-08-14T07:40:14;26.80;83.20
13817;DHT22;6979;52.116;5.286;2022-08-14T07:42:42;27.00;83.00
13817;DHT22;6979;52.116;5.286;2022-08-14T07:45:10;27.10;82.90
13817;DHT22;6979;52.116;5.286;2022-08-14T07:47:39;27.20;82.70
13817;DHT22;6979;52.116;5.286;2022-08-14T07:50:11;27.30;82.60
13817;DHT22;6979;52.116;5.286;2022-08-14T07:52:40;27.40;82.30
13817;DHT22;6979;52.116;5.286;2022-08-14T07:55:09;27.60;82.30
13817;DHT22;6979;52.116;5.286;2022-08-14T07:57:38;27.70;82.00
13817;DHT22;6979;52.116;5.286;2022-08-14T08:00:07;27.80;81.90
13817;DHT22;6979;52.116;5.286;2022-08-14T08:02:39;27.90;81.80
13817;DHT22;6979;52.116;5.286;2022-08-14T08:05:08;28.00;81.50
13817;DHT22;6979;52.116;5.286;2022-08-14T08:07:36;28.20;81.20
13817;DHT22;6979;52.116;5.286;2022-08-14T08:10:06;28.30;80.90
13817;DHT22;6979;52.116;5.286;2022-08-14T08:12:49;28.40;80.80
13817;DHT22;6979;52.116;5.286;2022-08-14T08:15:17;28.50;80.60
13817;DHT22;6979;52.116;5.286;2022-08-14T08:17:44;28.60;80.40
13817;DHT22;6979;52.116;5.286;2022-08-14T08:20:15;28.70;80.20
13817;DHT22;6979;52.116;5.286;2022-08-14T08:22:42;28.80;80.00
13817;DHT22;6979;52.116;5.286;2022-08-14T08:25:09;28.90;79.80
13817;DHT22;6979;52.116;5.286;2022-08-14T08:27:38;29.00;79.60
13817;DHT22;6979;52.116;5.286;2022-08-14T08:30:08;29.10;79.50
13817;DHT22;6979;52.116;5.286;2022-08-14T08:32:40;29.20;79.10
13817;DHT22;6979;52.116;5.286;2022-08-14T08:35:15;29.30;78.90
13817;DHT22;6979;52.116;5.286;2022-08-14T08:37:43;29.40;78.50
13817;DHT22;6979;52.116;5.286;2022-08-14T08:40:10;29.50;78.40
13817;DHT22;6979;52.116;5.286;2022-08-14T08:42:46;29.60;78.00
13817;DHT22;6979;52.116;5.286;2022-08-14T08:45:15;29.80;77.80
13817;DHT22;6979;52.116;5.286;2022-08-14T08:47:42;29.90;77.30
13817;DHT22;6979;52.116;5.286;2022-08-14T08:50:18;30.00;76.90
13817;DHT22;6979;52.116;5.286;2022-08-14T08:52:49;30.00;76.70
13817;DHT22;6979;52.116;5.286;2022-08-14T08:55:26;30.10;76.70
13817;DHT22;6979;52.116;5.286;2022-08-14T08:57:57;30.20;76.10
13817;DHT22;6979;52.116;5.286;2022-08-14T09:00:26;30.30;75.90
13817;DHT22;6979;52.116;5.286;2022-08-14T09:03:01;30.40;75.60
13817;DHT22;6979;52.116;5.286;2022-08-14T09:05:32;30.50;75.40
13817;DHT22;6979;52.116;5.286;2022-08-14T09:08:11;30.60;75.30
13817;DHT22;6979;52.116;5.286;2022-08-14T09:10:38;30.70;75.30
13817;DHT22;6979;52.116;5.286;2022-08-14T09:13:05;30.80;75.30
13817;DHT22;6979;52.116;5.286;2022-08-14T09:15:33;30.90;75.20
13817;DHT22;6979;52.116;5.286;2022-08-14T09:18:00;31.00;74.80
13817;DHT22;6979;52.116;5.286;2022-08-14T09:20:27;31.10;74.80
13817;DHT22;6979;52.116;5.286;2022-08-14T09:22:54;31.30;74.30
13817;DHT22;6979;52.116;5.286;2022-08-14T09:25:25;31.40;73.80
13817;DHT22;6979;52.116;5.286;2022-08-14T09:27:52;31.50;73.50
13817;DHT22;6979;52.116;5.286;2022-08-14T09:30:18;31.70;73.40
13817;DHT22;6979;52.116;5.286;2022-08-14T09:33:06;31.80;72.70
13817;DHT22;6979;52.116;5.286;2022-08-14T09:35:46;31.90;71.90
13817;DHT22;6979;52.116;5.286;2022-08-14T09:38:21;32.10;72.00
13817;DHT22;6979;52.116;5.286;2022-08-14T09:40:58;32.30;71.70
13817;DHT22;6979;52.116;5.286;2022-08-14T09:43:29;32.40;71.20
13817;DHT22;6979;52.116;5.286;2022-08-14T09:45:58;32.60;70.10
13817;DHT22;6979;52.116;5.286;2022-08-14T09:48:27;32.80;69.90
13817;DHT22;6979;52.116;5.286;2022-08-14T09:50:55;33.10;69.90
13817;DHT22;6979;52.116;5.286;2022-08-14T09:53:39;33.30;69.70
13817;DHT22;6979;52.116;5.286;2022-08-14T09:56:07;33.60;69.00
13817;DHT22;6979;52.116;5.286;2022-08-14T09:58:39;33.90;69.00
13817;DHT22;6979;52.116;5.286;2022-08-14T10:01:09;34.20;68.50
13817;DHT22;6979;52.116;5.286;2022-08-14T10:03:47;34.60;68.10
13817;DHT22;6979;52.116;5.286;2022-08-14T10:06:16;35.00;67.10
13817;DHT22;6979;52.116;5.286;2022-08-14T10:08:46;35.40;66.50
13817;DHT22;6979;52.116;5.286;2022-08-14T10:11:15;35.70;65.60
13817;DHT22;6979;52.116;5.286;2022-08-14T10:13:45;36.10;65.50
13817;DHT22;6979;52.116;5.286;2022-08-14T10:16:16;36.50;64.80
13817;DHT22;6979;52.116;5.286;2022-08-14T10:18:47;36.90;63.80
13817;DHT22;6979;52.116;5.286;2022-08-14T10:21:17;37.30;62.30
13817;DHT22;6979;52.116;5.286;2022-08-14T10:23:45;37.70;62.20
13817;DHT22;6979;52.116;5.286;2022-08-14T10:26:16;38.10;61.40
13817;DHT22;6979;52.116;5.286;2022-08-14T10:28:45;38.50;60.70
13817;DHT22;6979;52.116;5.286;2022-08-14T10:31:17;38.90;59.70
13817;DHT22;6979;52.116;5.286;2022-08-14T10:34:02;39.30;59.20
13817;DHT22;6979;52.116;5.286;2022-08-14T10:36:30;39.70;58.70
13817;DHT22;6979;52.116;5.286;2022-08-14T10:39:01;40.00;58.80
13817;DHT22;6979;52.116;5.286;2022-08-14T10:41:40;40.30;57.80
13817;DHT22;6979;52.116;5.286;2022-08-14T10:44:10;40.70;57.10
13817;DHT22;6979;52.116;5.286;2022-08-14T10:46:40;40.90;57.00
13817;DHT22;6979;52.116;5.286;2022-08-14T10:49:17;41.10;56.50
13817;DHT22;6979;52.116;5.286;2022-08-14T10:51:58;41.40;55.60
13817;DHT22;6979;52.116;5.286;2022-08-14T10:54:39;41.50;55.60
13817;DHT22;6979;52.116;5.286;2022-08-14T10:57:14;41.70;55.30
13817;DHT22;6979;52.116;5.286;2022-08-14T10:59:44;41.80;53.90
13817;DHT22;6979;52.116;5.286;2022-08-14T11:02:20;41.80;53.80
13817;DHT22;6979;52.116;5.286;2022-08-14T11:05:05;41.90;53.70
13817;DHT22;6979;52.116;5.286;2022-08-14T11:07:34;42.00;53.00
13817;DHT22;6979;52.116;5.286;2022-08-14T11:10:07;42.00;52.60
13817;DHT22;6979;52.116;5.286;2022-08-14T11:12:41;42.00;53.20
13817;DHT22;6979;52.116;5.286;2022-08-14T11:15:11;42.00;53.40
13817;DHT22;6979;52.116;5.286;2022-08-14T11:17:38;42.10;53.10
13817;DHT22;6979;52.116;5.286;2022-08-14T11:20:09;42.20;53.30
13817;DHT22;6979;52.116;5.286;2022-08-14T11:22:39;42.30;51.90
13817;DHT22;6979;52.116;5.286;2022-08-14T11:25:10;42.40;52.20
13817;DHT22;6979;52.116;5.286;2022-08-14T11:27:39;42.30;52.20
13817;DHT22;6979;52.116;5.286;2022-08-14T11:30:09;42.30;52.40
13817;DHT22;6979;52.116;5.286;2022-08-14T11:32:39;42.20;52.20
13817;DHT22;6979;52.116;5.286;2022-08-14T11:35:10;42.20;51.70
13817;DHT22;6979;52.116;5.286;2022-08-14T11:37:47;42.20;51.40
13817;DHT22;6979;52.116;5.286;2022-08-14T11:40:14;42.20;51.50
13817;DHT22;6979;52.116;5.286;2022-08-14T11:42:44;42.20;51.40
13817;DHT22;6979;52.116;5.286;2022-08-14T11:45:13;42.20;51.40
13817;DHT22;6979;52.116;5.286;2022-08-14T11:47:41;42.10;51.00
13817;DHT22;6979;52.116;5.286;2022-08-14T11:50:14;42.10;50.90
13817;DHT22;6979;52.116;5.286;2022-08-14T11:52:42;42.00;50.10
13817;DHT22;6979;52.116;5.286;2022-08-14T11:55:11;41.80;50.40
13817;DHT22;6979;52.116;5.286;2022-08-14T11:57:42;41.50;50.70
13817;DHT22;6979;52.116;5.286;2022-08-14T12:00:12;41.30;51.20
13817;DHT22;6979;52.116;5.286;2022-08-14T12:02:50;41.10;51.00
13817;DHT22;6979;52.116;5.286;2022-08-14T12:05:29;40.90;50.60
13817;DHT22;6979;52.116;5.286;2022-08-14T12:07:57;40.70;50.60
13817;DHT22;6979;52.116;5.286;2022-08-14T12:10:24;40.50;50.90
13817;DHT22;6979;52.116;5.286;2022-08-14T12:12:50;40.20;50.70
13817;DHT22;6979;52.116;5.286;2022-08-14T12:15:28;39.90;50.90
13817;DHT22;6979;52.116;5.286;2022-08-14T12:17:55;39.70;50.80
13817;DHT22;6979;52.116;5.286;2022-08-14T12:20:30;39.40;51.10
13817;DHT22;6979;52.116;5.286;2022-08-14T12:22:59;39.20;51.20
13817;DHT22;6979;52.116;5.286;2022-08-14T12:25:26;39.00;51.50
13817;DHT22;6979;52.116;5.286;2022-08-14T12:27:55;38.80;51.80
13817;DHT22;6979;52.116;5.286;2022-08-14T12:30:28;38.60;51.90
13817;DHT22;6979;52.116;5.286;2022-08-14T12:32:57;38.50;52.00
13817;DHT22;6979;52.116;5.286;2022-08-14T12:35:36;38.40;52.30
13817;DHT22;6979;52.116;5.286;2022-08-14T12:38:04;38.30;52.70
13817;DHT22;6979;52.116;5.286;2022-08-14T12:40:31;38.40;53.20
13817;DHT22;6979;52.116;5.286;2022-08-14T12:42:59;38.40;53.30
13817;DHT22;6979;52.116;5.286;2022-08-14T12:45:32;38.50;53.00
13817;DHT22;6979;52.116;5.286;2022-08-14T12:48:02;38.60;52.60
13817;DHT22;6979;52.116;5.286;2022-08-14T12:50:40;38.80;53.20
13817;DHT22;6979;52.116;5.286;2022-08-14T12:53:08;38.90;52.90
13817;DHT22;6979;52.116;5.286;2022-08-14T12:55:35;38.90;52.80
13817;DHT22;6979;52.116;5.286;2022-08-14T12:58:03;39.00;53.30
13817;DHT22;6979;52.116;5.286;2022-08-14T13:00:36;39.10;52.90
13817;DHT22;6979;52.116;5.286;2022-08-14T13:03:04;39.20;52.90
13817;DHT22;6979;52.116;5.286;2022-08-14T13:05:32;39.30;52.80
13817;DHT22;6979;52.116;5.286;2022-08-14T13:08:03;39.40;53.20
13817;DHT22;6979;52.116;5.286;2022-08-14T13:10:31;39.60;52.70
13817;DHT22;6979;52.116;5.286;2022-08-14T13:12:59;39.90;52.40
13817;DHT22;6979;52.116;5.286;2022-08-14T13:15:27;40.10;52.00
13817;DHT22;6979;52.116;5.286;2022-08-14T13:17:55;40.20;51.40
13817;DHT22;6979;52.116;5.286;2022-08-14T13:20:24;40.40;51.30
13817;DHT22;6979;52.116;5.286;2022-08-14T13:22:53;40.50;50.80
13817;DHT22;6979;52.116;5.286;2022-08-14T13:25:23;40.70;50.60
13817;DHT22;6979;52.116;5.286;2022-08-14T13:27:52;40.80;50.40
13817;DHT22;6979;52.116;5.286;2022-08-14T13:30:21;40.90;50.10
13817;DHT22;6979;52.116;5.286;2022-08-14T13:32:50;41.10;50.00
13817;DHT22;6979;52.116;5.286;2022-08-14T13:35:18;41.30;49.90
13817;DHT22;6979;52.116;5.286;2022-08-14T13:37:46;41.50;49.90
13817;DHT22;6979;52.116;5.286;2022-08-14T13:40:15;41.70;49.50
13817;DHT22;6979;52.116;5.286;2022-08-14T13:42:45;41.90;49.10
13817;DHT22;6979;52.116;5.286;2022-08-14T13:45:13;42.20;49.10
13817;DHT22;6979;52.116;5.286;2022-08-14T13:47:41;42.30;49.70
13817;DHT22;6979;52.116;5.286;2022-08-14T13:50:13;42.60;50.00
13817;DHT22;6979;52.116;5.286;2022-08-14T13:52:43;42.80;49.20
13817;DHT22;6979;52.116;5.286;2022-08-14T13:55:11;43.00;48.40
13817;DHT22;6979;52.116;5.286;2022-08-14T13:57:41;43.10;47.80
13817;DHT22;6979;52.116;5.286;2022-08-14T14:00:12;43.20;47.60
13817;DHT22;6979;52.116;5.286;2022-08-14T14:02:40;43.20;48.00
13817;DHT22;6979;52.116;5.286;2022-08-14T14:05:09;43.20;48.40
13817;DHT22;6979;52.116;5.286;2022-08-14T14:07:38;43.30;48.20
13817;DHT22;6979;52.116;5.286;2022-08-14T14:10:07;43.40;47.90
13817;DHT22;6979;52.116;5.286;2022-08-14T14:12:35;43.50;48.00
13817;DHT22;6979;52.116;5.286;2022-08-14T14:15:05;43.50;48.00
13817;DHT22;6979;52.116;5.286;2022-08-14T14:17:34;43.50;47.90
13817;DHT22;6979;52.116;5.286;2022-08-14T14:20:04;43.40;47.70
13817;DHT22;6979;52.116;5.286;2022-08-14T14:22:31;43.30;47.90
13817;DHT22;6979;52.116;5.286;2022-08-14T14:24:58;43.10;48.30
13817;DHT22;6979;52.116;5.286;2022-08-14T14:27:26;43.00;48.30
13817;DHT22;6979;52.116;5.286;2022-08-14T14:29:57;42.90;48.30
13817;DHT22;6979;52.116;5.286;2022-08-14T14:32:28;42.80;49.10
13817;DHT22;6979;52.116;5.286;2022-08-14T14:34:58;42.70;49.00
13817;DHT22;6979;52.116;5.286;2022-08-14T14:37:27;42.60;48.30
13817;DHT22;6979;52.116;5.286;2022-08-14T14:39:56;42.60;48.00
13817;DHT22;6979;52.116;5.286;2022-08-14T14:42:25;42.50;48.30
13817;DHT22;6979;52.116;5.286;2022-08-14T14:44:55;42.40;48.70
13817;DHT22;6979;52.116;5.286;2022-08-14T14:47:26;42.30;49.50
13817;DHT22;6979;52.116;5.286;2022-08-14T14:49:55;42.20;48.80
13817;DHT22;6979;52.116;5.286;2022-08-14T14:52:23;42.20;48.80
13817;DHT22;6979;52.116;5.286;2022-08-14T14:54:51;42.20;48.90
13817;DHT22;6979;52.116;5.286;2022-08-14T14:57:18;42.10;48.90
13817;DHT22;6979;52.116;5.286;2022-08-14T14:59:45;42.10;49.00
13817;DHT22;6979;52.116;5.286;2022-08-14T15:02:25;42.00;48.90
13817;DHT22;6979;52.116;5.286;2022-08-14T15:04:57;41.90;48.90
13817;DHT22;6979;52.116;5.286;2022-08-14T15:07:26;41.70;49.20
13817;DHT22;6979;52.116;5.286;2022-08-14T15:09:53;41.50;49.30
13817;DHT22;6979;52.116;5.286;2022-08-14T15:12:19;41.20;50.30
13817;DHT22;6979;52.116;5.286;2022-08-14T15:14:47;41.10;49.80
13817;DHT22;6979;52.116;5.286;2022-08-14T15:17:14;40.90;50.20
13817;DHT22;6979;52.116;5.286;2022-08-14T15:19:41;40.70;50.40
13817;DHT22;6979;52.116;5.286;2022-08-14T15:22:08;40.70;50.60
13817;DHT22;6979;52.116;5.286;2022-08-14T15:24:36;40.60;50.70
13817;DHT22;6979;52.116;5.286;2022-08-14T15:27:04;40.60;51.00
13817;DHT22;6979;52.116;5.286;2022-08-14T15:29:31;40.60;51.30
13817;DHT22;6979;52.116;5.286;2022-08-14T15:32:03;40.70;51.40
13817;DHT22;6979;52.116;5.286;2022-08-14T15:34:31;40.70;51.60
13817;DHT22;6979;52.116;5.286;2022-08-14T15:36:58;40.80;51.30
13817;DHT22;6979;52.116;5.286;2022-08-14T15:39:24;40.90;51.10
13817;DHT22;6979;52.116;5.286;2022-08-14T15:41:53;41.00;50.80
13817;DHT22;6979;52.116;5.286;2022-08-14T15:44:20;41.10;51.10
13817;DHT22;6979;52.116;5.286;2022-08-14T15:46:48;41.10;51.10
13817;DHT22;6979;52.116;5.286;2022-08-14T15:49:15;41.20;51.30
13817;DHT22;6979;52.116;5.286;2022-08-14T15:51:43;41.20;51.10
13817;DHT22;6979;52.116;5.286;2022-08-14T15:54:10;41.30;50.80
13817;DHT22;6979;52.116;5.286;2022-08-14T15:56:37;41.40;50.40
13817;DHT22;6979;52.116;5.286;2022-08-14T15:59:08;41.30;50.90